Time;durP1;ratioP1;P1;durP2;ratioP2;P2;SDS_P1;SDS_P2;PMS_P1;PMS_P2;Temp;Humidity;BMP_temperature;BMP_pressure;BME280_temperature;BME280_humidity;BME280_pressure;Samples;Min_cycle;Max_cycle;Signal;HPM_P1;HPM_P2
2023/05/19 00:00:56;;;;;;;17.03;8.57;;;8.80;99.90;;;;;;4975564;28;20233;-60
2023/05/19 00:03:25;;;;;;;13.40;8.77;;;8.70;99.90;;;;;;4975753;28;20200;-59
2023/05/19 00:05:54;;;;;;;13.97;9.47;;;8.70;99.90;;;;;;4970403;28;20187;-59
2023/05/19 00:08:24;;;;;;;10.93;9.10;;;8.70;99.90;;;;;;4964527;28;20227;-60
2023/05/19 00:10:53;;;;;;;15.47;8.73;;;8.70;99.90;;;;;;4963792;28;20216;-60
2023/05/19 00:13:22;;;;;;;14.03;8.83;;;8.70;99.90;;;;;;4956579;28;20223;-59
2023/05/19 00:15:51;;;;;;;13.67;9.40;;;8.60;99.90;;;;;;4956081;28;20231;-60
2023/05/19 00:18:20;;;;;;;15.60;8.83;;;8.60;99.90;;;;;;4956172;28;20184;-60
2023/05/19 00:20:48;;;;;;;13.93;8.90;;;8.60;99.90;;;;;;4964012;28;20243;-60
2023/05/19 00:23:16;;;;;;;16.13;9.80;;;8.50;99.90;;;;;;4956156;28;20227;-60
2023/05/19 00:25:46;;;;;;;17.00;10.13;;;8.50;99.90;;;;;;4956169;28;20227;-60
2023/05/19 00:28:14;;;;;;;19.43;9.77;;;8.50;99.90;;;;;;4956077;28;20220;-59
2023/05/19 00:30:42;;;;;;;18.03;10.03;;;8.40;99.90;;;;;;4956037;28;20650;-59
2023/05/19 00:33:10;;;;;;;14.50;9.50;;;8.40;99.90;;;;;;4956521;28;20195;-60
2023/05/19 00:35:40;;;;;;;15.93;9.67;;;8.30;99.90;;;;;;4955986;28;20221;-60
2023/05/19 00:38:08;;;;;;;12.43;9.23;;;8.30;99.90;;;;;;4955981;28;20271;-59
2023/05/19 00:40:36;;;;;;;16.23;9.47;;;8.30;99.90;;;;;;4955698;28;20236;-59
2023/05/19 00:43:07;;;;;;;18.97;10.00;;;8.30;99.90;;;;;;4956187;28;20622;-59
2023/05/19 00:45:35;;;;;;;14.93;9.47;;;8.20;99.90;;;;;;4955860;28;20235;-60
2023/05/19 00:48:04;;;;;;;21.67;9.70;;;8.20;99.90;;;;;;4956354;28;20196;-60
2023/05/19 00:50:32;;;;;;;18.17;10.00;;;8.20;99.90;;;;;;4955592;28;20290;-60
2023/05/19 00:53:01;;;;;;;16.17;10.37;;;8.20;99.90;;;;;;4955273;28;20228;-60
2023/05/19 00:55:31;;;;;;;18.67;9.77;;;8.20;99.90;;;;;;4948806;28;20224;-60
2023/05/19 00:58:00;;;;;;;12.90;9.63;;;8.20;99.90;;;;;;4936704;29;20683;-59
2023/05/19 01:00:30;;;;;;;21.33;10.20;;;8.20;99.90;;;;;;4936524;29;20570;-60
2023/05/19 01:05:48;;;;;;;17.50;10.83;;;8.00;99.90;;;;;;5127840;23;20270;-61
2023/05/19 01:08:17;;;;;;;15.07;10.47;;;8.00;99.90;;;;;;4962814;28;20907;-60
2023/05/19 01:10:45;;;;;;;17.47;10.10;;;8.00;99.90;;;;;;4961045;28;20238;-60
2023/05/19 01:13:13;;;;;;;17.47;10.40;;;8.00;99.90;;;;;;4964982;28;20227;-61
2023/05/19 01:15:57;;;;;;;15.70;9.93;;;7.90;99.90;;;;;;4956849;28;20199;-60
2023/05/19 01:18:32;;;;;;;19.87;11.03;;;7.90;99.90;;;;;;4968576;28;20606;-60
2023/05/19 01:21:14;;;;;;;20.37;11.60;;;7.90;99.90;;;;;;4963509;28;20203;-60
2023/05/19 01:23:53;;;;;;;18.87;10.87;;;7.90;99.90;;;;;;4968188;28;20222;-60
2023/05/19 01:26:40;;;;;;;21.50;10.60;;;7.90;99.90;;;;;;4970524;28;20231;-60
2023/05/19 01:29:27;;;;;;;16.50;9.77;;;7.90;99.90;;;;;;4972107;28;20223;-61
2023/05/19 01:32:00;;;;;;;17.03;10.13;;;7.80;99.90;;;;;;4972013;28;20223;-60
2023/05/19 01:34:29;;;;;;;15.67;9.63;;;7.80;99.90;;;;;;4969305;28;20254;-60
2023/05/19 01:36:59;;;;;;;14.50;9.60;;;7.80;99.90;;;;;;4969294;28;20246;-61
2023/05/19 01:39:29;;;;;;;21.60;10.37;;;7.80;99.90;;;;;;4971984;28;20642;-60
2023/05/19 01:41:58;;;;;;;17.17;10.30;;;7.70;99.90;;;;;;4970922;28;20191;-61
2023/05/19 01:44:27;;;;;;;14.80;9.87;;;7.70;99.90;;;;;;4963312;28;20311;-61
2023/05/19 01:46:57;;;;;;;13.83;10.10;;;7.70;99.90;;;;;;4971340;28;20224;-61
2023/05/19 01:49:26;;;;;;;17.53;10.57;;;7.70;99.90;;;;;;4970331;28;20219;-60
2023/05/19 01:51:54;;;;;;;17.00;10.17;;;7.70;99.90;;;;;;4980171;28;20231;-60
2023/05/19 01:54:24;;;;;;;21.47;10.73;;;7.60;99.90;;;;;;4969369;28;20199;-60
2023/05/19 01:57:00;;;;;;;18.77;10.73;;;7.60;99.90;;;;;;4949239;28;20228;-61
2023/05/19 01:59:49;;;;;;;17.70;10.90;;;7.60;99.90;;;;;;4943621;28;20234;-61
2023/05/19 02:02:29;;;;;;;15.67;10.83;;;7.50;99.90;;;;;;4945004;28;20220;-60
2023/05/19 02:05:02;;;;;;;19.33;11.03;;;7.50;99.90;;;;;;4941302;28;20278;-61
2023/05/19 02:07:41;;;;;;;23.43;10.93;;;7.50;99.90;;;;;;4937072;28;20235;-58
2023/05/19 02:10:14;;;;;;;18.17;11.10;;;7.50;99.90;;;;;;4945716;28;20232;-61
2023/05/19 02:12:44;;;;;;;16.37;10.37;;;7.40;99.90;;;;;;4936486;28;20220;-61
2023/05/19 02:15:16;;;;;;;19.37;11.33;;;7.40;99.90;;;;;;4948225;28;20285;-60
2023/05/19 02:17:50;;;;;;;19.40;10.60;;;7.40;99.90;;;;;;4940632;28;20702;-60
2023/05/19 02:20:20;;;;;;;22.57;10.83;;;7.40;99.90;;;;;;4949847;28;20235;-60
2023/05/19 02:22:49;;;;;;;20.60;11.27;;;7.40;99.90;;;;;;4947627;28;20714;-61
2023/05/19 02:25:17;;;;;;;14.80;10.70;;;7.40;99.90;;;;;;4940773;28;20220;-60
2023/05/19 02:27:47;;;;;;;15.93;10.43;;;7.30;99.90;;;;;;4953352;28;20256;-61
2023/05/19 02:30:16;;;;;;;19.73;11.23;;;7.30;99.90;;;;;;4944620;28;20203;-60
2023/05/19 02:32:45;;;;;;;19.93;11.90;;;7.30;99.90;;;;;;4952348;28;20215;-61
2023/05/19 02:35:14;;;;;;;21.20;11.33;;;7.30;99.90;;;;;;4942340;28;20224;-60
2023/05/19 02:37:43;;;;;;;17.10;11.33;;;7.30;99.90;;;;;;4946194;29;20222;-60
2023/05/19 02:40:11;;;;;;;20.50;11.20;;;7.30;99.90;;;;;;4948424;28;20228;-61
2023/05/19 02:42:39;;;;;;;16.83;11.70;;;7.20;99.90;;;;;;4946522;28;20196;-61
2023/05/19 02:45:08;;;;;;;19.33;11.63;;;7.20;99.90;;;;;;4956775;29;20504;-60
2023/05/19 02:47:37;;;;;;;16.53;10.97;;;7.20;99.90;;;;;;4948211;28;20213;-61
2023/05/19 02:50:08;;;;;;;20.53;11.70;;;7.10;99.90;;;;;;4943510;28;20219;-60
2023/05/19 02:52:36;;;;;;;19.60;11.77;;;7.00;99.90;;;;;;4945785;28;20224;-60
2023/05/19 02:55:05;;;;;;;22.70;12.17;;;7.00;99.90;;;;;;4947056;28;20732;-60
2023/05/19 02:57:35;;;;;;;17.23;11.77;;;7.00;99.90;;;;;;4945040;28;20542;-60
2023/05/19 03:00:05;;;;;;;24.73;12.17;;;7.00;99.90;;;;;;4948946;29;20196;-60
2023/05/19 03:02:34;;;;;;;21.00;12.30;;;7.10;99.90;;;;;;4942648;28;20220;-61
2023/05/19 03:05:02;;;;;;;19.30;11.03;;;7.10;99.90;;;;;;4946580;28;20287;-60
2023/05/19 03:07:32;;;;;;;19.63;12.70;;;7.10;99.90;;;;;;4941263;28;20220;-61
2023/05/19 03:10:02;;;;;;;23.93;12.33;;;7.00;99.90;;;;;;4952744;28;20235;-61
2023/05/19 03:12:31;;;;;;;22.07;12.73;;;7.10;99.90;;;;;;4949915;28;20204;-60
2023/05/19 03:14:59;;;;;;;22.77;12.50;;;7.00;99.90;;;;;;4951695;28;20200;-61
2023/05/19 03:17:32;;;;;;;18.73;12.20;;;7.00;99.90;;;;;;4944715;28;20235;-61
2023/05/19 03:20:01;;;;;;;20.63;12.47;;;7.00;99.90;;;;;;4946057;28;20594;-60
2023/05/19 03:22:29;;;;;;;19.40;11.83;;;7.00;99.90;;;;;;4947204;28;20243;-60
2023/05/19 03:24:59;;;;;;;16.37;11.20;;;6.90;99.90;;;;;;4944866;28;20271;-60
2023/05/19 03:27:27;;;;;;;17.23;11.93;;;6.80;99.90;;;;;;4945926;28;20558;-60
2023/05/19 03:29:55;;;;;;;22.13;12.07;;;6.80;99.90;;;;;;4944342;28;20197;-60
2023/05/19 03:32:23;;;;;;;21.97;12.60;;;6.70;99.90;;;;;;4947141;28;20220;-60
2023/05/19 03:34:52;;;;;;;25.87;12.83;;;6.70;99.90;;;;;;4951920;28;20278;-60
2023/05/19 03:37:20;;;;;;;27.63;14.10;;;6.70;99.90;;;;;;4947186;28;20711;-61
2023/05/19 03:39:48;;;;;;;27.03;13.20;;;6.80;99.90;;;;;;4948691;28;20736;-60
2023/05/19 03:42:18;;;;;;;19.70;13.53;;;6.90;99.90;;;;;;4945614;28;20228;-60
2023/05/19 03:44:47;;;;;;;25.37;13.37;;;6.90;99.90;;;;;;4946946;28;20220;-60
2023/05/19 03:47:15;;;;;;;26.10;14.10;;;6.90;99.90;;;;;;4949019;28;20228;-60
2023/05/19 03:49:43;;;;;;;24.13;13.13;;;6.90;99.90;;;;;;4947356;28;20231;-60
2023/05/19 03:52:12;;;;;;;21.03;13.70;;;6.90;99.90;;;;;;4941454;28;20220;-60
2023/05/19 03:54:41;;;;;;;24.17;13.57;;;6.80;99.90;;;;;;4941988;28;20215;-61
2023/05/19 03:57:10;;;;;;;22.03;13.60;;;6.80;99.90;;;;;;4943860;28;20207;-60
2023/05/19 03:59:40;;;;;;;24.37;14.07;;;6.90;99.90;;;;;;4952245;28;20563;-60
2023/05/19 04:02:08;;;;;;;23.13;14.00;;;6.80;99.90;;;;;;4940787;28;20233;-61
2023/05/19 04:04:37;;;;;;;23.10;14.20;;;6.80;99.90;;;;;;4944658;28;20606;-60
2023/05/19 04:07:06;;;;;;;24.13;14.00;;;6.80;99.90;;;;;;4942612;28;20228;-61
2023/05/19 04:09:34;;;;;;;25.13;13.50;;;6.80;99.90;;;;;;4950397;28;20196;-60
2023/05/19 04:12:02;;;;;;;22.30;14.33;;;6.90;99.90;;;;;;4947537;29;20185;-60
2023/05/19 04:14:31;;;;;;;25.73;13.80;;;6.80;99.90;;;;;;4952487;28;20231;-60
2023/05/19 04:17:00;;;;;;;24.30;14.17;;;6.80;99.90;;;;;;4943967;28;20307;-60
2023/05/19 04:19:28;;;;;;;25.10;13.47;;;6.80;99.90;;;;;;4952037;28;20228;-60
2023/05/19 04:21:57;;;;;;;20.90;14.23;;;6.90;99.90;;;;;;4950189;28;20659;-60
2023/05/19 04:24:25;;;;;;;22.23;13.77;;;6.80;99.90;;;;;;4943224;28;20838;-60
2023/05/19 04:26:53;;;;;;;23.10;13.83;;;6.90;99.90;;;;;;4944251;28;20188;-60
2023/05/19 04:29:22;;;;;;;19.83;13.00;;;7.00;99.90;;;;;;4943985;28;20220;-60
2023/05/19 04:31:51;;;;;;;24.97;14.10;;;7.00;99.90;;;;;;4940393;28;20227;-60
2023/05/19 04:34:21;;;;;;;22.33;14.33;;;7.10;99.90;;;;;;4947368;28;20220;-60
2023/05/19 04:36:49;;;;;;;24.40;14.40;;;7.10;99.90;;;;;;4942347;28;20965;-61
2023/05/19 04:39:20;;;;;;;23.93;13.93;;;7.10;99.90;;;;;;4950929;28;20659;-60
2023/05/19 04:41:48;;;;;;;22.33;13.47;;;7.10;99.90;;;;;;4947569;28;20702;-60
2023/05/19 04:44:17;;;;;;;24.57;13.87;;;7.20;99.90;;;;;;4948778;28;20224;-60
2023/05/19 04:46:45;;;;;;;25.83;15.00;;;7.20;99.90;;;;;;4947819;28;20302;-61
2023/05/19 04:49:13;;;;;;;22.33;14.00;;;7.30;99.90;;;;;;4950464;28;20290;-60
2023/05/19 04:51:44;;;;;;;18.13;13.03;;;7.40;99.90;;;;;;4947410;28;20551;-61
2023/05/19 04:54:13;;;;;;;25.17;13.27;;;7.40;99.90;;;;;;4951474;28;20262;-60
2023/05/19 04:56:42;;;;;;;23.50;12.63;;;7.40;99.90;;;;;;4943986;28;20215;-60
2023/05/19 04:59:10;;;;;;;20.77;12.60;;;7.50;99.90;;;;;;4952740;28;20286;-60
2023/05/19 05:01:39;;;;;;;22.70;13.17;;;7.60;99.90;;;;;;4945000;28;20293;-61
2023/05/19 05:04:08;;;;;;;19.30;12.77;;;7.70;99.90;;;;;;4942364;28;20712;-60
2023/05/19 05:06:39;;;;;;;21.73;13.07;;;7.80;99.90;;;;;;4942456;28;20207;-60
2023/05/19 05:09:09;;;;;;;23.90;12.87;;;7.90;99.90;;;;;;4946188;29;20197;-60
2023/05/19 05:11:37;;;;;;;22.80;12.87;;;8.00;99.90;;;;;;4947780;28;20220;-61
2023/05/19 05:14:06;;;;;;;26.43;13.03;;;8.00;99.90;;;;;;4943567;28;20310;-60
2023/05/19 05:16:35;;;;;;;21.73;12.27;;;8.10;99.90;;;;;;4943671;28;20260;-61
2023/05/19 05:19:04;;;;;;;18.63;12.60;;;8.30;99.90;;;;;;4939834;28;20269;-61
2023/05/19 05:21:33;;;;;;;18.37;11.90;;;8.40;99.90;;;;;;4947175;28;20223;-60
2023/05/19 05:24:02;;;;;;;20.97;12.93;;;8.40;99.90;;;;;;4946390;28;20203;-60
2023/05/19 05:26:34;;;;;;;20.77;12.50;;;8.60;99.90;;;;;;4946998;28;20234;-60
2023/05/19 05:29:02;;;;;;;19.23;11.80;;;8.70;99.90;;;;;;4940169;28;20224;-60
2023/05/19 05:31:31;;;;;;;16.87;11.83;;;8.80;99.90;;;;;;4941363;28;20315;-60
2023/05/19 05:34:00;;;;;;;19.50;12.23;;;8.90;99.90;;;;;;4938719;28;20228;-60
2023/05/19 05:36:29;;;;;;;19.83;12.07;;;9.00;99.90;;;;;;4943145;28;20192;-61
2023/05/19 05:38:59;;;;;;;20.83;12.03;;;9.10;99.90;;;;;;4949091;29;20662;-60
2023/05/19 05:41:28;;;;;;;20.67;12.10;;;9.20;99.90;;;;;;4942641;28;20266;-60
2023/05/19 05:43:57;;;;;;;16.47;12.03;;;9.30;99.10;;;;;;4943306;28;20230;-60
2023/05/19 05:46:25;;;;;;;16.10;11.27;;;9.50;98.00;;;;;;4940688;28;20225;-60
2023/05/19 05:48:54;;;;;;;19.30;11.80;;;9.50;92.20;;;;;;4944489;28;20228;-60
2023/05/19 05:51:24;;;;;;;20.73;11.40;;;9.60;93.20;;;;;;4948298;28;20203;-61
2023/05/19 05:53:55;;;;;;;17.33;11.13;;;9.70;94.70;;;;;;4941802;28;20228;-61
2023/05/19 05:56:23;;;;;;;23.53;10.53;;;9.80;89.70;;;;;;4944403;28;20232;-59
2023/05/19 05:58:52;;;;;;;20.67;11.37;;;9.90;92.80;;;;;;4943622;28;20713;-61
2023/05/19 06:01:22;;;;;;;18.00;10.90;;;10.00;97.60;;;;;;4940786;28;20216;-61
2023/05/19 06:03:51;;;;;;;21.33;11.10;;;10.10;94.20;;;;;;4946259;28;20325;-59
2023/05/19 06:06:19;;;;;;;20.40;11.67;;;10.20;98.40;;;;;;4947433;28;20224;-58
2023/05/19 06:08:47;;;;;;;19.07;10.70;;;10.30;99.90;;;;;;4944561;28;20662;-60
2023/05/19 06:11:16;;;;;;;15.83;10.40;;;10.40;99.90;;;;;;4948033;28;20227;-61
2023/05/19 06:13:45;;;;;;;15.10;10.90;;;10.50;99.90;;;;;;4944195;28;20245;-61
2023/05/19 06:16:13;;;;;;;18.13;10.93;;;10.50;99.90;;;;;;4946755;28;20231;-59
2023/05/19 06:18:42;;;;;;;16.00;10.33;;;10.60;99.90;;;;;;4943995;28;20255;-59
2023/05/19 06:21:12;;;;;;;11.87;10.07;;;10.70;99.90;;;;;;4941924;29;20328;-58
2023/05/19 06:23:41;;;;;;;13.47;9.80;;;10.90;99.90;;;;;;4947625;28;20232;-58
2023/05/19 06:26:09;;;;;;;16.87;10.40;;;11.00;99.90;;;;;;4942859;28;20233;-61
2023/05/19 06:28:37;;;;;;;15.40;10.53;;;11.30;93.60;;;;;;4946755;28;20231;-61
2023/05/19 06:31:05;;;;;;;14.70;10.40;;;11.40;99.90;;;;;;4944298;28;20220;-61
2023/05/19 06:33:34;;;;;;;15.07;10.20;;;11.60;99.90;;;;;;4948765;28;20201;-60
2023/05/19 06:36:04;;;;;;;16.20;10.60;;;11.80;99.90;;;;;;4944815;29;20551;-61
2023/05/19 06:38:32;;;;;;;18.37;10.03;;;11.90;99.90;;;;;;4945695;28;20216;-61
2023/05/19 06:41:00;;;;;;;16.07;9.60;;;12.00;99.90;;;;;;4942488;28;20228;-61
2023/05/19 06:43:29;;;;;;;15.33;10.20;;;12.00;1.00;;;;;;4947383;28;20221;-60
2023/05/19 06:45:57;;;;;;;18.23;8.97;;;12.20;1.00;;;;;;4946526;28;20235;-61
2023/05/19 06:48:25;;;;;;;15.40;9.93;;;12.40;1.00;;;;;;4942241;28;20204;-60
2023/05/19 06:50:54;;;;;;;15.63;10.07;;;12.50;1.00;;;;;;4943907;28;20208;-61
2023/05/19 06:53:24;;;;;;;17.70;9.47;;;12.60;1.00;;;;;;4942593;28;20243;-58
2023/05/19 06:55:52;;;;;;;19.13;9.90;;;12.60;1.00;;;;;;4937997;28;20558;-58
2023/05/19 06:58:27;;;;;;;15.27;9.27;;;12.60;1.00;;;;;;4943838;28;20625;-59
2023/05/19 07:00:55;;;;;;;13.70;9.30;;;12.70;1.00;;;;;;4937747;28;20308;-58
2023/05/19 07:03:23;;;;;;;12.00;8.80;;;13.00;1.00;;;;;;4940290;28;20264;-56
2023/05/19 07:05:52;;;;;;;12.57;9.30;;;13.10;1.00;;;;;;4939779;28;20646;-58
2023/05/19 07:08:20;;;;;;;16.20;8.20;;;13.30;1.00;;;;;;4951303;28;20226;-59
2023/05/19 07:10:49;;;;;;;15.33;8.93;;;13.60;1.00;;;;;;4942018;28;20232;-59
2023/05/19 07:13:19;;;;;;;15.40;8.87;;;13.60;1.00;;;;;;4943262;28;20220;-58
2023/05/19 07:15:47;;;;;;;14.10;8.33;;;13.60;1.00;;;;;;4940436;28;20312;-59
2023/05/19 07:18:16;;;;;;;13.07;8.70;;;13.70;1.00;;;;;;4945861;28;20219;-59
2023/05/19 07:20:44;;;;;;;15.30;8.87;;;13.90;1.00;;;;;;4938173;28;20312;-58
2023/05/19 07:23:12;;;;;;;12.53;8.23;;;13.90;1.00;;;;;;4946588;28;20228;-59
2023/05/19 07:25:44;;;;;;;12.57;8.70;;;14.10;1.00;;;;;;4946418;28;20255;-58
2023/05/19 07:28:14;;;;;;;13.40;8.83;;;14.20;1.00;;;;;;4942221;28;20611;-59
2023/05/19 07:30:42;;;;;;;12.47;8.47;;;14.30;1.00;;;;;;4944793;28;20533;-59
2023/05/19 07:33:11;;;;;;;15.43;8.13;;;14.30;1.00;;;;;;4940801;28;20203;-60
2023/05/19 07:35:39;;;;;;;12.73;8.07;;;14.40;1.00;;;;;;4945359;28;20577;-59
2023/05/19 07:38:08;;;;;;;14.00;8.40;;;14.40;1.00;;;;;;4944164;29;20227;-59
2023/05/19 07:40:37;;;;;;;14.77;9.17;;;14.40;1.00;;;;;;4939421;28;20220;-59
2023/05/19 07:43:05;;;;;;;14.37;8.63;;;14.30;1.00;;;;;;4940741;28;20631;-58
2023/05/19 07:45:36;;;;;;;17.43;9.00;;;14.40;1.00;;;;;;4944018;28;20207;-59
2023/05/19 07:48:04;;;;;;;11.43;8.27;;;14.50;1.00;;;;;;4940969;29;20235;-59
2023/05/19 07:50:33;;;;;;;13.77;7.97;;;14.70;1.00;;;;;;4942304;28;20309;-59
2023/05/19 07:53:02;;;;;;;11.80;7.90;;;15.00;99.90;;;;;;4935643;28;20284;-59
2023/05/19 07:55:30;;;;;;;13.10;7.97;;;15.30;99.90;;;;;;4946216;28;20296;-60
2023/05/19 07:57:59;;;;;;;13.60;8.87;;;15.60;99.90;;;;;;4937209;28;20699;-60
2023/05/19 08:00:27;;;;;;;12.87;9.00;;;15.60;99.90;;;;;;4953513;28;20216;-58
2023/05/19 08:02:57;;;;;;;19.47;8.80;;;15.60;99.90;;;;;;4948045;28;20216;-59
2023/05/19 08:05:26;;;;;;;12.97;8.70;;;15.70;99.90;;;;;;4938540;28;20714;-59
2023/05/19 08:07:54;;;;;;;9.40;7.33;;;15.90;99.90;;;;;;4951839;28;20255;-59
2023/05/19 08:10:22;;;;;;;10.83;7.77;;;16.30;1.00;;;;;;4944874;28;20224;-59
2023/05/19 08:12:51;;;;;;;14.60;8.30;;;16.50;1.00;;;;;;4951078;28;20699;-59
2023/05/19 08:15:19;;;;;;;11.57;7.77;;;16.80;1.00;;;;;;4945275;28;20193;-59
2023/05/19 08:17:48;;;;;;;14.00;8.17;;;16.90;1.00;;;;;;4941488;28;20675;-59
2023/05/19 08:20:19;;;;;;;13.23;8.03;;;16.90;1.00;;;;;;4950966;28;20231;-59
2023/05/19 08:22:49;;;;;;;11.73;8.10;;;16.90;1.00;;;;;;4948915;28;20235;-59
2023/05/19 08:25:18;;;;;;;15.07;8.23;;;17.00;1.00;;;;;;4943078;28;20234;-60
2023/05/19 08:27:46;;;;;;;14.23;7.93;;;17.00;1.00;;;;;;4939023;28;20219;-59
2023/05/19 08:30:15;;;;;;;11.33;7.83;;;17.40;1.00;;;;;;4943215;29;20202;-59
2023/05/19 08:32:43;;;;;;;12.77;7.73;;;17.80;1.00;;;;;;4944220;28;20227;-59
2023/05/19 08:35:12;;;;;;;9.70;7.60;;;17.90;1.00;;;;;;4941071;28;20328;-60
2023/05/19 08:37:41;;;;;;;10.97;7.43;;;17.80;99.90;;;;;;4953358;28;20594;-59
2023/05/19 08:40:15;;;;;;;12.87;7.47;;;17.90;1.00;;;;;;4942737;28;20220;-59
2023/05/19 08:42:44;;;;;;;13.13;7.63;;;18.10;1.00;;;;;;4940087;28;20236;-59
2023/05/19 08:45:13;;;;;;;13.13;8.03;;;18.50;99.90;;;;;;4935483;28;20335;-59
2023/05/19 08:47:42;;;;;;;13.93;7.07;;;18.60;1.00;;;;;;4938983;28;20231;-59
2023/05/19 08:50:14;;;;;;;10.33;7.33;;;18.80;23.50;;;;;;4938019;28;20564;-59
2023/05/19 08:52:54;;;;;;;9.23;6.87;;;19.00;1.00;;;;;;4941488;28;20228;-59
2023/05/19 08:55:32;;;;;;;15.97;7.23;;;19.20;1.00;;;;;;4945002;28;20239;-60
2023/05/19 08:58:04;;;;;;;12.00;6.55;;;19.40;1.00;;;;;;4939920;28;20243;-60
2023/05/19 09:00:33;;;;;;;10.43;6.65;;;19.90;1.00;;;;;;4938277;28;20198;-59
2023/05/19 09:03:03;;;;;;;10.05;6.00;;;20.30;1.00;;;;;;4945204;28;20199;-60
2023/05/19 09:05:45;;;;;;;10.02;6.32;;;20.70;1.00;;;;;;4938841;28;20307;-60
2023/05/19 09:08:15;;;;;;;11.82;7.18;;;21.20;1.00;;;;;;4947713;28;20332;-60
2023/05/19 09:10:43;;;;;;;11.45;7.53;;;21.10;1.00;;;;;;4950074;28;20216;-60
2023/05/19 09:13:12;;;;;;;11.38;6.40;;;21.00;1.00;;;;;;4942744;28;20226;-59
2023/05/19 09:15:43;;;;;;;10.23;6.05;;;21.10;1.00;;;;;;4940167;28;20207;-59
2023/05/19 09:18:13;;;;;;;12.45;7.32;;;21.90;99.90;;;;;;4943627;29;20191;-59
2023/05/19 09:20:43;;;;;;;9.85;6.20;;;22.50;1.00;;;;;;4948231;28;20262;-59
2023/05/19 09:23:17;;;;;;;9.02;6.38;;;22.40;99.90;;;;;;4945838;28;20221;-59
2023/05/19 09:25:49;;;;;;;13.15;5.70;;;22.40;99.90;;;;;;4957724;28;20735;-60
2023/05/19 09:28:24;;;;;;;12.10;5.93;;;22.50;99.90;;;;;;4939609;28;20571;-59
2023/05/19 09:31:02;;;;;;;6.53;4.70;;;22.30;99.90;;;;;;4946020;28;20272;-60
2023/05/19 09:33:37;;;;;;;10.18;6.20;;;22.90;1.00;;;;;;4951988;28;20211;-59
2023/05/19 09:36:09;;;;;;;9.82;5.97;;;23.60;1.00;;;;;;4946999;29;20210;-58
2023/05/19 09:38:40;;;;;;;10.35;5.70;;;23.40;99.90;;;;;;4952775;28;20276;-58
2023/05/19 09:41:08;;;;;;;6.70;5.72;;;23.60;99.90;;;;;;4943134;28;20235;-58
2023/05/19 09:43:37;;;;;;;8.00;5.57;;;23.60;99.90;;;;;;4940554;28;20693;-58
2023/05/19 09:46:06;;;;;;;7.55;5.90;;;23.50;99.90;;;;;;4950642;28;20254;-59
2023/05/19 09:48:36;;;;;;;5.45;4.90;;;23.70;99.90;;;;;;4946791;28;20669;-58
2023/05/19 09:51:06;;;;;;;10.68;5.28;;;23.70;14.10;;;;;;4956621;28;20208;-58
2023/05/19 09:53:35;;;;;;;8.07;5.25;;;23.60;64.60;;;;;;4939096;28;20233;-59
2023/05/19 09:56:06;;;;;;;7.55;5.45;;;23.60;1.00;;;;;;4957015;28;20262;-58
2023/05/19 09:58:35;;;;;;;8.68;5.25;;;23.50;1.00;;;;;;4942273;28;20713;-58
2023/05/19 10:01:05;;;;;;;9.23;5.13;;;23.40;1.00;;;;;;4935286;28;20251;-58
2023/05/19 10:03:34;;;;;;;7.68;5.13;;;23.60;1.00;;;;;;4953670;28;20199;-58
2023/05/19 10:06:04;;;;;;;6.88;5.53;;;23.70;1.00;;;;;;4952736;28;20238;-58
2023/05/19 10:08:34;;;;;;;10.02;5.40;;;24.00;86.90;;;;;;4945560;28;20227;-58
2023/05/19 10:11:06;;;;;;;7.85;5.30;;;24.30;1.00;;;;;;4943741;28;20227;-58
2023/05/19 10:13:37;;;;;;;8.70;4.80;;;24.60;1.00;;;;;;4943215;28;20227;-58
2023/05/19 10:16:06;;;;;;;8.65;4.80;;;23.90;1.00;;;;;;4949530;28;20235;-58
2023/05/19 10:18:35;;;;;;;9.38;5.00;;;23.00;1.00;;;;;;4950210;28;20216;-58
2023/05/19 10:21:08;;;;;;;9.80;5.80;;;23.20;1.00;;;;;;4951211;28;20208;-58
2023/05/19 10:23:37;;;;;;;8.48;5.40;;;23.50;1.00;;;;;;4950509;28;20257;-58
2023/05/19 10:26:08;;;;;;;6.20;4.30;;;23.70;1.00;;;;;;4945284;28;20228;-58
2023/05/19 10:28:40;;;;;;;11.68;4.60;;;23.90;1.00;;;;;;4960688;28;20230;-57
2023/05/19 10:31:13;;;;;;;6.93;4.50;;;23.70;1.00;;;;;;4948798;28;20596;-57
2023/05/19 10:33:56;;;;;;;6.40;4.13;;;22.70;1.00;;;;;;4953373;28;20197;-57
2023/05/19 10:36:39;;;;;;;8.00;5.47;;;22.80;1.00;;;;;;4950881;28;20196;-57
2023/05/19 10:39:13;;;;;;;6.80;5.07;;;23.60;1.00;;;;;;4953246;28;20187;-58
2023/05/19 10:41:50;;;;;;;9.10;5.30;;;24.10;1.00;;;;;;4946722;28;20233;-57
2023/05/19 10:44:31;;;;;;;7.28;5.85;;;23.80;1.00;;;;;;4950273;28;20221;-57
2023/05/19 10:46:59;;;;;;;7.60;5.47;;;23.20;1.00;;;;;;4941957;28;20319;-60
2023/05/19 10:49:46;;;;;;;9.23;5.23;;;22.60;1.00;;;;;;4944488;28;20696;-60
2023/05/19 10:52:24;;;;;;;5.73;3.90;;;22.20;1.00;;;;;;4942884;28;20322;-60
2023/05/19 10:54:53;;;;;;;7.40;3.63;;;21.70;1.00;;;;;;4954554;28;20310;-60
2023/05/19 10:57:30;;;;;;;11.57;4.87;;;21.10;1.00;;;;;;4945950;28;20374;-61
2023/05/19 11:00:10;;;;;;;8.10;4.80;;;21.40;1.00;;;;;;4951555;29;20237;-61
2023/05/19 11:02:41;;;;;;;7.83;4.80;;;21.90;1.00;;;;;;4941406;28;20263;-61
2023/05/19 11:05:11;;;;;;;9.13;4.37;;;22.30;99.90;;;;;;4947840;28;20243;-61
2023/05/19 11:07:43;;;;;;;6.77;4.27;;;22.50;1.00;;;;;;4948624;28;20295;-61
2023/05/19 11:10:12;;;;;;;6.83;4.23;;;22.70;1.00;;;;;;4943762;28;20564;-61
2023/05/19 11:12:43;;;;;;;5.70;3.83;;;22.70;99.90;;;;;;4941753;28;20654;-61
2023/05/19 11:15:13;;;;;;;7.10;4.40;;;22.70;1.00;;;;;;4948221;28;20200;-61
2023/05/19 11:17:49;;;;;;;7.37;4.07;;;22.90;1.00;;;;;;4947554;28;20228;-61
2023/05/19 11:20:23;;;;;;;5.00;4.33;;;23.20;1.00;;;;;;4947969;28;20706;-61
2023/05/19 11:25:53;;;;;;;6.83;4.50;;;22.40;1.00;;;;;;5545604;23;21002;-94
2023/05/19 11:32:09;;;;;;;6.93;4.77;;;21.20;1.00;;;;;;4929758;29;20183;-94
2023/05/19 11:34:39;;;;;;;9.50;4.70;;;21.80;1.00;;;;;;4942517;29;20187;-96
2023/05/19 11:37:08;;;;;;;5.73;3.23;;;22.00;1.00;;;;;;4919754;29;20223;-96
2023/05/19 11:46:41;;;;;;;4.80;4.27;;;23.20;1.00;;;;;;4920832;29;20211;-96
2023/05/19 11:52:53;;;;;;;7.30;3.97;;;23.00;99.90;;;;;;4919853;29;20629;-95
2023/05/19 11:59:03;;;;;;;7.60;4.40;;;22.40;99.90;;;;;;4920398;29;20191;-93
2023/05/19 12:01:32;;;;;;;7.97;3.80;;;22.20;99.90;;;;;;4935911;29;20195;-95
2023/05/19 12:04:01;;;;;;;6.23;4.13;;;22.20;1.00;;;;;;4918901;29;20209;-95
2023/05/19 12:06:30;;;;;;;6.70;3.97;;;22.30;1.00;;;;;;4919245;29;20226;-95
2023/05/19 12:09:02;;;;;;;8.80;4.30;;;22.10;1.00;;;;;;4919213;29;20522;-93
2023/05/19 12:11:31;;;;;;;8.17;3.70;;;22.30;1.00;;;;;;4919565;29;20549;-95
2023/05/19 12:14:02;;;;;;;5.00;3.77;;;22.50;1.00;;;;;;4919537;29;20209;-94
2023/05/19 12:20:13;;;;;;;7.67;3.87;;;22.40;1.00;;;;;;4919889;29;20186;-95
2023/05/19 12:22:43;;;;;;;6.47;4.20;;;22.70;1.00;;;;;;4918992;29;20228;-94
2023/05/19 12:28:55;;;;;;;8.23;3.63;;;22.30;99.90;;;;;;4918847;29;20225;-94
2023/05/19 12:31:24;;;;;;;10.13;3.87;;;21.70;1.00;;;;;;4919129;29;20243;-94
2023/05/19 12:33:53;;;;;;;4.43;3.70;;;21.70;99.90;;;;;;4918794;29;20235;-93
2023/05/19 12:40:04;;;;;;;6.30;4.40;;;21.70;1.00;;;;;;4918413;29;20213;-94
2023/05/19 12:43:10;;;;;;;6.23;3.90;;;21.80;1.00;;;;;;4918897;29;20197;-95
2023/05/19 12:45:41;;;;;;;11.07;4.03;;;21.70;1.00;;;;;;4919088;29;20213;-94
2023/05/19 12:48:15;;;;;;;6.73;4.20;;;21.70;1.00;;;;;;4919357;29;20289;-94
2023/05/19 12:50:45;;;;;;;9.37;4.57;;;21.70;1.00;;;;;;4919081;29;20222;-94
2023/05/19 12:53:14;;;;;;;7.93;4.03;;;21.40;99.90;;;;;;4918797;29;20201;-92
2023/05/19 12:55:43;;;;;;;6.77;3.97;;;21.40;1.00;;;;;;4919026;29;20712;-93
2023/05/19 13:01:59;;;;;;;4.27;3.70;;;21.30;99.90;;;;;;4918811;29;20185;-95
2023/05/19 13:08:10;;;;;;;5.50;3.93;;;21.30;1.00;;;;;;4918203;29;20217;-93
2023/05/19 13:14:19;;;;;;;6.27;3.90;;;21.70;1.00;;;;;;4918862;29;20185;-94
2023/05/19 13:20:50;;;;;;;6.40;4.23;;;22.00;99.90;;;;;;4918647;29;20177;-94
2023/05/19 13:23:20;;;;;;;5.47;4.20;;;21.90;1.00;;;;;;4934458;29;20201;-93
2023/05/19 13:29:29;;;;;;;5.87;3.57;;;22.10;1.00;;;;;;4919575;29;20213;-95
2023/05/19 13:31:58;;;;;;;4.67;3.53;;;22.30;1.00;;;;;;4918613;29;20224;-94
2023/05/19 13:34:28;;;;;;;4.80;3.80;;;22.50;1.00;;;;;;4934137;29;20200;-95
2023/05/19 13:36:59;;;;;;;5.73;3.83;;;22.70;1.00;;;;;;4918288;29;20189;-93
2023/05/19 13:43:09;;;;;;;6.43;3.63;;;22.90;1.00;;;;;;4920046;29;20185;-94
2023/05/19 13:45:43;;;;;;;6.57;3.50;;;22.90;1.00;;;;;;4922208;29;20237;-96
2023/05/19 13:48:15;;;;;;;4.10;3.67;;;23.00;99.90;;;;;;4922935;29;20276;-96
2023/05/19 13:50:44;;;;;;;7.47;3.80;;;23.00;99.90;;;;;;4920165;29;20714;-94
2023/05/19 13:53:17;;;;;;;8.63;3.73;;;22.70;1.00;;;;;;4930724;29;20247;-95
2023/05/19 13:56:10;;;;;;;8.57;3.90;;;22.70;1.00;;;;;;4891706;29;20237;-62